Lutherville Timonium, Maryland
Current Conditions -  °F | °C
As of 1:30 AM on Thursday 29 Jan 2015 (Local Time) from KMTN Reporting Station
Clear Clear  
Wind Chill: 25°   Ceiling: Unl
Heat Index: 25°   Visibility: 10mi
Dew Point: 12°   Wind: 0mph
Humidity: 59%   Direction: NA
Pressure: 30.34"   Gusts: NA
Location:  39.4211°N, 76.6266°W
Report Text: KMTN 290630Z AUTO 00000KT 10SM CLR M04/M11 A3034 RMK AO2
Loading
Personal Weather Stations






























Interactive Weather Map New forecast layout! Learn more

10-Day Weather Forecast

Advertisements
Track Severe Weather on mobile